createdAt,value
2019-01-24T00:00:08.870Z,0.00
2019-01-24T00:01:08.843Z,0.00
2019-01-24T00:02:08.819Z,0.00
2019-01-24T00:03:08.791Z,0.00
2019-01-24T00:04:08.766Z,0.00
2019-01-24T00:05:08.734Z,0.00
2019-01-24T00:06:08.708Z,0.00
2019-01-24T00:07:08.680Z,0.00
2019-01-24T00:08:08.653Z,0.00
2019-01-24T00:09:08.629Z,0.00
2019-01-24T00:10:08.612Z,0.00
2019-01-24T00:11:08.575Z,0.00
2019-01-24T00:12:08.564Z,0.00
2019-01-24T00:13:08.530Z,0.00
2019-01-24T00:14:08.491Z,0.00
2019-01-24T00:15:08.473Z,0.00
2019-01-24T00:16:08.444Z,0.00
2019-01-24T00:17:08.411Z,0.00
2019-01-24T00:18:08.414Z,0.00
2019-01-24T00:19:08.358Z,0.00
2019-01-24T00:20:08.332Z,0.00
2019-01-24T00:21:08.304Z,0.00
2019-01-24T00:22:08.277Z,0.00
2019-01-24T00:23:08.250Z,0.00
2019-01-24T00:24:08.226Z,0.00
2019-01-24T00:25:08.201Z,0.00
2019-01-24T00:26:08.169Z,0.00
2019-01-24T00:28:08.120Z,0.00
2019-01-24T00:29:08.095Z,0.00
2019-01-24T00:30:08.067Z,0.00
2019-01-24T00:31:08.035Z,0.00
2019-01-24T00:32:08.005Z,0.00
2019-01-24T00:33:07.976Z,0.00
2019-01-24T00:34:07.953Z,0.00
2019-01-24T00:35:07.923Z,0.00
2019-01-24T00:36:07.900Z,0.00
2019-01-24T00:37:07.868Z,0.00
2019-01-24T00:38:07.850Z,0.00
2019-01-24T00:39:07.815Z,0.00
2019-01-24T00:40:07.788Z,0.00
2019-01-24T00:41:07.760Z,0.00
2019-01-24T00:42:07.733Z,0.00
2019-01-24T00:43:07.705Z,0.00
2019-01-24T00:44:07.680Z,0.00
2019-01-24T00:45:07.656Z,0.00
2019-01-24T00:46:07.626Z,0.00
2019-01-24T00:47:07.599Z,0.00
2019-01-24T00:48:07.574Z,0.00
2019-01-24T00:49:07.543Z,0.00
2019-01-24T00:50:07.518Z,0.00
2019-01-24T00:51:07.491Z,0.00
2019-01-24T00:52:07.466Z,0.00
2019-01-24T00:53:07.437Z,0.00
2019-01-24T00:54:07.411Z,0.00
2019-01-24T00:55:07.381Z,0.00
2019-01-24T00:56:07.364Z,0.00
2019-01-24T00:57:07.329Z,0.00
2019-01-24T00:58:07.300Z,0.00
2019-01-24T00:59:07.283Z,0.00
2019-01-24T01:00:07.249Z,0.00
2019-01-24T01:01:07.220Z,0.00
2019-01-24T01:02:07.192Z,0.00
2019-01-24T01:03:07.164Z,0.00
2019-01-24T01:04:07.137Z,0.00
2019-01-24T01:05:07.111Z,0.00
2019-01-24T01:06:07.083Z,0.00
2019-01-24T01:07:07.052Z,0.00
2019-01-24T01:08:07.027Z,0.00
2019-01-24T01:09:07.000Z,0.00
2019-01-24T01:10:06.980Z,0.00
2019-01-24T01:11:06.944Z,0.00
2019-01-24T01:12:06.920Z,0.00
2019-01-24T01:13:06.891Z,0.00
2019-01-24T01:14:06.865Z,0.00
2019-01-24T01:15:06.837Z,0.00
2019-01-24T01:16:06.810Z,0.00
2019-01-24T01:17:06.783Z,0.00
2019-01-24T01:18:06.756Z,0.00
2019-01-24T01:19:06.728Z,0.00
2019-01-24T01:20:06.701Z,0.00
2019-01-24T01:21:06.673Z,0.00
2019-01-24T01:22:06.649Z,0.00
2019-01-24T01:23:06.615Z,0.00
2019-01-24T01:24:06.597Z,0.00
2019-01-24T01:25:06.566Z,0.00
2019-01-24T01:26:06.541Z,0.00
2019-01-24T01:27:06.509Z,0.00
2019-01-24T01:28:06.485Z,0.00
2019-01-24T01:29:06.456Z,0.00
2019-01-24T01:30:06.432Z,0.00
2019-01-24T01:31:06.407Z,0.00
2019-01-24T01:32:06.378Z,0.00
2019-01-24T01:33:06.353Z,0.00
2019-01-24T01:34:06.320Z,0.00
2019-01-24T01:35:06.291Z,0.00
2019-01-24T01:36:06.264Z,0.00
2019-01-24T01:37:06.236Z,0.00
2019-01-24T01:38:06.210Z,0.00
2019-01-24T01:39:06.185Z,0.00
2019-01-24T01:40:06.155Z,0.00
2019-01-24T01:41:06.126Z,0.00
2019-01-24T01:42:06.113Z,0.00
2019-01-24T01:43:06.074Z,0.00
2019-01-24T01:44:06.051Z,0.00
2019-01-24T01:45:06.019Z,0.00
2019-01-24T01:46:05.993Z,0.00
2019-01-24T01:47:05.963Z,0.00
2019-01-24T01:48:05.936Z,0.00
2019-01-24T01:49:05.909Z,0.00
2019-01-24T01:50:05.882Z,0.00
2019-01-24T01:51:05.864Z,0.00
2019-01-24T01:52:05.827Z,0.00
2019-01-24T01:53:05.799Z,0.00
2019-01-24T01:54:05.780Z,0.00
2019-01-24T01:55:05.747Z,0.00
2019-01-24T01:56:05.717Z,0.00
2019-01-24T01:57:05.688Z,0.00
2019-01-24T01:58:05.661Z,0.00
2019-01-24T01:59:05.645Z,0.00
2019-01-24T02:00:05.609Z,0.00
2019-01-24T02:01:05.588Z,0.00
2019-01-24T02:02:05.552Z,0.00
2019-01-24T02:03:05.528Z,0.00
2019-01-24T02:04:05.498Z,0.00
2019-01-24T02:05:05.468Z,0.00
2019-01-24T02:06:05.441Z,0.00
2019-01-24T02:07:05.430Z,0.00
2019-01-24T02:08:05.384Z,0.00
2019-01-24T02:09:05.365Z,0.00
2019-01-24T02:10:05.332Z,0.00
2019-01-24T02:11:05.305Z,0.00
2019-01-24T02:12:05.275Z,0.00
2019-01-24T02:13:05.253Z,0.00
2019-01-24T02:14:05.231Z,0.00
2019-01-24T02:15:05.198Z,0.00
2019-01-24T02:16:05.165Z,0.00
2019-01-24T02:17:05.141Z,0.00
2019-01-24T02:18:05.112Z,0.00
2019-01-24T02:19:05.083Z,0.00
2019-01-24T02:20:05.057Z,0.00
2019-01-24T02:21:05.031Z,0.00
2019-01-24T02:22:05.004Z,0.00
2019-01-24T02:23:04.976Z,0.00
2019-01-24T02:24:04.948Z,0.00
2019-01-24T02:25:04.924Z,0.00
2019-01-24T02:26:04.894Z,0.00
2019-01-24T02:27:04.862Z,0.00
2019-01-24T02:28:04.840Z,0.00
2019-01-24T02:29:04.814Z,0.00
2019-01-24T02:30:04.791Z,0.00
2019-01-24T02:31:04.760Z,0.00
2019-01-24T02:32:04.728Z,0.00
2019-01-24T02:33:04.705Z,0.00
2019-01-24T02:34:04.674Z,0.00
2019-01-24T02:35:04.641Z,0.00
2019-01-24T02:36:04.615Z,0.00
2019-01-24T02:37:04.594Z,0.00
2019-01-24T02:38:04.563Z,0.00
2019-01-24T02:39:04.538Z,0.00
2019-01-24T02:40:04.509Z,0.00
2019-01-24T02:41:04.481Z,0.00
2019-01-24T02:42:04.452Z,0.00
2019-01-24T02:43:04.423Z,0.00
2019-01-24T02:44:04.396Z,0.00
2019-01-24T02:45:04.369Z,0.00
2019-01-24T02:46:04.344Z,0.00
2019-01-24T02:47:04.313Z,0.00
2019-01-24T02:48:04.283Z,0.00
2019-01-24T02:49:04.263Z,0.00
2019-01-24T02:50:04.230Z,0.00
2019-01-24T02:51:04.205Z,0.00
2019-01-24T02:52:04.175Z,0.00
2019-01-24T02:53:04.146Z,0.00
2019-01-24T02:54:04.120Z,0.00
2019-01-24T02:55:04.092Z,0.00
2019-01-24T02:56:04.070Z,0.00
2019-01-24T02:57:04.042Z,0.00
2019-01-24T02:58:04.009Z,0.00
2019-01-24T02:59:03.981Z,0.00
2019-01-24T03:00:03.960Z,0.00
2019-01-24T03:01:03.927Z,0.00
2019-01-24T03:02:03.899Z,0.00
2019-01-24T03:03:03.871Z,0.00
2019-01-24T03:04:03.849Z,0.00
2019-01-24T03:05:03.817Z,0.00
2019-01-24T03:06:03.791Z,0.00
2019-01-24T03:07:03.761Z,0.00
2019-01-24T03:08:03.730Z,0.00
2019-01-24T03:09:03.703Z,0.00
2019-01-24T03:10:03.680Z,0.00
2019-01-24T03:11:03.649Z,0.00
2019-01-24T03:12:03.621Z,0.00
2019-01-24T03:13:03.599Z,0.00
2019-01-24T03:14:03.567Z,0.00
2019-01-24T03:15:03.545Z,0.00
2019-01-24T03:16:03.513Z,0.00
2019-01-24T03:17:03.481Z,0.00
2019-01-24T03:18:03.453Z,0.00
2019-01-24T03:19:03.427Z,0.00
2019-01-24T03:20:03.402Z,0.00
2019-01-24T03:21:03.370Z,0.00
2019-01-24T03:22:03.343Z,0.00
2019-01-24T03:23:03.316Z,0.00
2019-01-24T03:24:03.285Z,0.00
2019-01-24T03:25:03.358Z,0.00
2019-01-24T03:26:03.380Z,0.00
2019-01-24T03:27:03.206Z,0.00
2019-01-24T03:28:03.178Z,0.00
2019-01-24T03:29:03.147Z,0.00
2019-01-24T03:30:03.127Z,0.00
2019-01-24T03:31:03.102Z,0.00
2019-01-24T03:32:03.086Z,0.00
2019-01-24T03:33:03.049Z,0.00
2019-01-24T03:34:03.018Z,0.00
2019-01-24T03:35:04.407Z,0.00
2019-01-24T03:36:02.952Z,0.00
2019-01-24T03:37:02.924Z,0.00
2019-01-24T03:38:02.895Z,0.00
2019-01-24T03:39:02.886Z,0.00
2019-01-24T03:40:02.846Z,0.00
2019-01-24T03:41:02.830Z,0.00
2019-01-24T03:42:02.786Z,0.00
2019-01-24T03:43:02.766Z,0.00
2019-01-24T03:44:02.730Z,0.00
2019-01-24T03:45:02.704Z,0.00
2019-01-24T03:46:02.677Z,0.00
2019-01-24T03:47:02.655Z,0.00
2019-01-24T03:48:02.630Z,0.00
2019-01-24T03:49:02.596Z,0.00
2019-01-24T03:50:02.566Z,0.00
2019-01-24T03:51:02.537Z,0.00
2019-01-24T03:52:02.508Z,0.00
2019-01-24T03:53:02.484Z,0.00
2019-01-24T03:54:02.453Z,0.00
2019-01-24T03:55:02.426Z,0.00
2019-01-24T03:56:02.398Z,0.00
2019-01-24T03:57:02.372Z,0.00
2019-01-24T03:58:02.360Z,0.00
2019-01-24T03:59:02.317Z,0.00
2019-01-24T04:00:02.289Z,0.00
2019-01-24T04:01:02.261Z,0.00
2019-01-24T04:02:02.231Z,0.00
2019-01-24T04:03:02.204Z,0.00
2019-01-24T04:04:02.184Z,0.00
2019-01-24T04:05:02.157Z,0.00
2019-01-24T04:06:02.119Z,0.00
2019-01-24T04:07:02.092Z,0.00
2019-01-24T04:08:02.064Z,0.00
2019-01-24T04:09:02.045Z,0.00
2019-01-24T04:10:02.011Z,0.00
2019-01-24T04:11:01.982Z,0.00
2019-01-24T04:12:01.955Z,0.00
2019-01-24T04:13:01.948Z,0.00
2019-01-24T04:14:01.898Z,0.00
2019-01-24T04:15:01.884Z,0.00
2019-01-24T04:16:01.842Z,0.00
2019-01-24T04:17:01.815Z,0.00
2019-01-24T04:18:01.787Z,0.00
2019-01-24T04:19:01.759Z,0.00
2019-01-24T04:20:01.737Z,0.00
2019-01-24T04:21:01.705Z,0.00
2019-01-24T04:22:01.677Z,0.00
2019-01-24T04:23:01.648Z,0.00
2019-01-24T04:24:01.622Z,0.00
2019-01-24T04:25:01.593Z,0.00
2019-01-24T04:26:01.565Z,0.00
2019-01-24T04:27:01.541Z,0.00
2019-01-24T04:28:01.515Z,0.00
2019-01-24T04:29:01.491Z,0.00
2019-01-24T04:30:01.462Z,0.00
2019-01-24T04:31:01.445Z,0.00
2019-01-24T04:32:01.402Z,0.00
2019-01-24T04:33:01.374Z,0.00
2019-01-24T04:34:01.345Z,0.00
2019-01-24T04:35:01.323Z,0.00
2019-01-24T04:36:01.289Z,0.00
2019-01-24T04:37:01.267Z,0.00
2019-01-24T04:38:01.236Z,0.00
2019-01-24T04:39:01.204Z,0.00
2019-01-24T04:40:01.184Z,0.00
2019-01-24T04:41:01.156Z,0.00
2019-01-24T04:42:01.125Z,0.00
2019-01-24T04:43:01.113Z,0.00
2019-01-24T04:44:01.070Z,0.00
2019-01-24T04:45:01.044Z,0.00
2019-01-24T04:46:01.015Z,0.00
2019-01-24T04:47:00.991Z,0.00
2019-01-24T04:48:00.963Z,0.00
2019-01-24T04:49:00.933Z,0.00
2019-01-24T04:50:00.906Z,0.00
2019-01-24T04:51:00.877Z,0.00
2019-01-24T04:52:00.854Z,0.00
2019-01-24T04:53:00.824Z,0.00
2019-01-24T04:54:00.800Z,0.00
2019-01-24T04:55:00.767Z,0.00
2019-01-24T04:56:00.741Z,0.00
2019-01-24T04:57:00.714Z,0.00
2019-01-24T04:58:00.687Z,0.00
2019-01-24T04:59:00.656Z,0.00
2019-01-24T05:00:00.629Z,0.00
2019-01-24T05:01:00.601Z,0.00
2019-01-24T05:02:00.575Z,0.00
2019-01-24T05:03:00.548Z,0.00
2019-01-24T05:04:00.533Z,0.00
2019-01-24T05:05:00.491Z,0.00
2019-01-24T05:06:00.470Z,0.00
2019-01-24T05:07:00.448Z,0.00
2019-01-24T05:08:00.413Z,0.00
2019-01-24T05:09:00.418Z,0.00
2019-01-24T05:10:00.359Z,0.00
2019-01-24T05:11:00.325Z,0.00
2019-01-24T05:12:00.303Z,0.00
2019-01-24T05:13:00.282Z,0.00
2019-01-24T05:14:00.246Z,0.00
2019-01-24T05:15:00.376Z,0.00
2019-01-24T05:16:00.195Z,0.00
2019-01-24T05:17:00.168Z,0.00
2019-01-24T05:18:00.137Z,0.00
2019-01-24T05:19:00.116Z,0.00
2019-01-24T05:20:00.153Z,0.00
2019-01-24T05:21:00.057Z,0.00
2019-01-24T05:22:00.026Z,0.00
2019-01-24T05:23:00.001Z,0.00
2019-01-24T05:23:59.974Z,0.00
2019-01-24T05:24:59.947Z,0.00
2019-01-24T05:25:59.925Z,0.00
2019-01-24T05:26:59.890Z,0.00
2019-01-24T05:27:59.863Z,0.00
2019-01-24T05:28:59.835Z,0.00
2019-01-24T05:29:59.806Z,0.00
2019-01-24T05:30:59.790Z,0.00
2019-01-24T05:31:59.757Z,0.00
2019-01-24T05:32:59.737Z,0.00
2019-01-24T05:33:59.700Z,0.00
2019-01-24T05:34:59.671Z,0.00
2019-01-24T05:35:59.644Z,0.00
2019-01-24T05:36:59.619Z,0.00
2019-01-24T05:37:59.592Z,0.00
2019-01-24T05:38:59.564Z,0.00
2019-01-24T05:39:59.544Z,0.00
2019-01-24T05:40:59.508Z,0.00
2019-01-24T05:41:59.485Z,0.00
2019-01-24T05:42:59.453Z,0.00
2019-01-24T05:43:59.426Z,0.00
2019-01-24T05:44:59.402Z,0.00
2019-01-24T05:45:59.709Z,0.00
2019-01-24T05:46:59.346Z,0.00
2019-01-24T05:47:59.319Z,0.00
2019-01-24T05:48:59.293Z,0.00
2019-01-24T05:50:59.234Z,0.00
2019-01-24T05:51:59.209Z,0.00
2019-01-24T05:52:59.187Z,0.00
2019-01-24T05:53:59.155Z,0.00
2019-01-24T05:54:59.144Z,0.00
2019-01-24T05:55:59.099Z,0.00
2019-01-24T05:56:59.079Z,0.00
2019-01-24T05:57:59.048Z,0.00
2019-01-24T05:58:59.027Z,0.00
2019-01-24T05:59:58.997Z,0.00
2019-01-24T06:00:58.978Z,0.00
2019-01-24T06:01:58.937Z,0.00
2019-01-24T06:02:58.907Z,0.00
2019-01-24T06:03:58.890Z,0.00
2019-01-24T06:04:58.858Z,0.00
2019-01-24T06:05:58.829Z,0.00
2019-01-24T06:06:58.805Z,0.00
2019-01-24T06:07:58.780Z,0.00
2019-01-24T06:08:58.770Z,0.00
2019-01-24T06:09:58.722Z,0.00
2019-01-24T06:10:58.705Z,0.00
2019-01-24T06:11:58.995Z,0.00
2019-01-24T06:12:58.649Z,0.00
2019-01-24T06:13:58.625Z,0.00
2019-01-24T06:14:58.596Z,0.00
2019-01-24T06:15:58.564Z,0.00
2019-01-24T06:16:58.528Z,0.00
2019-01-24T06:17:58.503Z,0.00
2019-01-24T06:18:58.473Z,0.00
2019-01-24T06:19:58.457Z,0.00
2019-01-24T06:20:58.426Z,0.00
2019-01-24T06:21:58.395Z,0.00
2019-01-24T06:22:58.686Z,0.00
2019-01-24T06:23:58.339Z,0.00
2019-01-24T06:24:58.315Z,0.00
2019-01-24T06:25:58.284Z,0.00
2019-01-24T06:26:58.258Z,0.00
2019-01-24T06:27:58.234Z,0.00
2019-01-24T06:28:58.201Z,0.00
2019-01-24T06:29:58.175Z,0.00
2019-01-24T06:30:58.152Z,0.00
2019-01-24T06:31:58.120Z,0.00
2019-01-24T06:32:58.094Z,0.00
2019-01-24T06:33:58.071Z,0.00
2019-01-24T06:34:58.043Z,0.00
2019-01-24T06:35:58.014Z,0.00
2019-01-24T06:36:58.198Z,0.00
2019-01-24T06:37:57.958Z,0.00
2019-01-24T06:38:57.930Z,0.00
2019-01-24T06:39:57.904Z,0.00
2019-01-24T06:40:57.878Z,0.00
2019-01-24T06:41:57.851Z,0.00
2019-01-24T06:42:57.823Z,0.00
2019-01-24T06:43:57.795Z,0.00
2019-01-24T06:44:57.772Z,0.00
2019-01-24T06:45:57.743Z,0.00
2019-01-24T06:46:57.711Z,0.00
2019-01-24T06:47:57.686Z,0.00
2019-01-24T06:48:57.663Z,0.00
2019-01-24T06:49:57.634Z,0.00
2019-01-24T06:50:57.610Z,0.00
2019-01-24T06:51:57.578Z,0.00
2019-01-24T06:52:57.551Z,0.00
2019-01-24T06:53:57.525Z,0.00
2019-01-24T06:54:57.493Z,0.00
2019-01-24T06:55:57.467Z,4.00
2019-01-24T06:56:57.438Z,4.00
2019-01-24T06:57:57.416Z,0.00
2019-01-24T06:58:57.386Z,0.00
2019-01-24T06:59:57.355Z,4.00
2019-01-24T07:00:57.335Z,4.00
2019-01-24T07:01:57.305Z,0.00
2019-01-24T07:02:57.276Z,4.00
2019-01-24T07:03:57.249Z,4.00
2019-01-24T07:04:57.224Z,4.00
2019-01-24T07:05:57.197Z,4.00
2019-01-24T07:06:57.168Z,4.00
2019-01-24T07:07:57.141Z,4.00
2019-01-24T07:08:57.116Z,4.00
2019-01-24T07:09:57.097Z,8.00
2019-01-24T07:10:57.059Z,8.00
2019-01-24T07:11:57.031Z,12.00
2019-01-24T07:12:57.006Z,8.00
2019-01-24T07:13:56.984Z,12.00
2019-01-24T07:14:56.959Z,12.00
2019-01-24T07:15:56.963Z,16.00
2019-01-24T07:16:56.902Z,12.00
2019-01-24T07:17:56.877Z,16.00
2019-01-24T07:18:56.848Z,16.00
2019-01-24T07:19:56.815Z,20.00
2019-01-24T07:20:56.790Z,16.00
2019-01-24T07:21:56.763Z,20.00
2019-01-24T07:22:56.733Z,20.00
2019-01-24T07:23:56.711Z,24.00
2019-01-24T07:24:56.684Z,28.00
2019-01-24T07:25:56.652Z,32.00
2019-01-24T07:26:56.640Z,32.00
2019-01-24T07:27:56.610Z,32.00
2019-01-24T07:28:56.573Z,36.00
2019-01-24T07:29:56.558Z,40.00
2019-01-24T07:30:56.515Z,40.00
2019-01-24T07:31:56.491Z,44.00
2019-01-24T07:32:56.465Z,44.00
2019-01-24T07:33:56.437Z,48.00
2019-01-24T07:34:56.406Z,48.00
2019-01-24T07:36:01.973Z,52.00
2019-01-24T07:36:56.354Z,56.00
2019-01-24T07:37:56.329Z,60.00
2019-01-24T07:38:56.299Z,64.00
2019-01-24T07:39:56.271Z,68.00
2019-01-24T07:40:56.247Z,72.00
2019-01-24T07:41:56.221Z,80.00
2019-01-24T07:42:56.196Z,84.00
2019-01-24T07:43:56.174Z,88.00
2019-01-24T07:44:56.137Z,88.00
2019-01-24T07:45:56.111Z,92.00
2019-01-24T07:46:56.090Z,92.00
2019-01-24T07:47:56.054Z,96.00
2019-01-24T07:48:56.030Z,96.00
2019-01-24T07:49:56.005Z,100.00
2019-01-24T07:50:56.023Z,104.00
2019-01-24T07:51:55.946Z,108.00
2019-01-24T07:52:55.929Z,108.00
2019-01-24T07:53:55.892Z,116.00
2019-01-24T07:54:55.863Z,120.00
2019-01-24T07:55:55.842Z,128.00
2019-01-24T07:56:55.814Z,132.00
2019-01-24T07:57:55.787Z,136.00
2019-01-24T07:58:55.757Z,144.00
2019-01-24T07:59:55.731Z,152.00
2019-01-24T08:00:55.701Z,156.00
2019-01-24T08:01:55.679Z,160.00
2019-01-24T08:02:55.646Z,172.00
2019-01-24T08:03:55.641Z,176.00
2019-01-24T08:04:55.595Z,180.00
2019-01-24T08:05:55.567Z,184.00
2019-01-24T08:06:55.539Z,188.00
2019-01-24T08:07:55.514Z,188.00
2019-01-24T08:08:55.491Z,192.00
2019-01-24T08:09:55.461Z,200.00
2019-01-24T08:10:55.435Z,204.00
2019-01-24T08:11:55.403Z,212.00
2019-01-24T08:12:55.390Z,216.00
2019-01-24T08:13:55.352Z,228.00
2019-01-24T08:14:55.324Z,236.00
2019-01-24T08:15:55.311Z,244.00
2019-01-24T08:16:55.273Z,248.00
2019-01-24T08:17:55.247Z,252.00
2019-01-24T08:18:55.216Z,256.00
2019-01-24T08:19:55.190Z,252.00
2019-01-24T08:20:55.170Z,256.00
2019-01-24T08:21:55.135Z,260.00
2019-01-24T08:22:55.114Z,272.00
2019-01-24T08:23:55.088Z,280.00
2019-01-24T08:24:55.049Z,288.00
2019-01-24T08:25:55.022Z,288.00
2019-01-24T08:26:54.995Z,296.00
2019-01-24T08:27:54.976Z,296.00
2019-01-24T08:28:54.947Z,300.00
2019-01-24T08:29:54.914Z,304.00
2019-01-24T08:30:54.887Z,300.00
2019-01-24T08:31:54.868Z,296.00
2019-01-24T08:32:54.835Z,292.00
2019-01-24T08:33:54.806Z,292.00
2019-01-24T08:34:54.778Z,300.00
2019-01-24T08:35:54.754Z,304.00
2019-01-24T08:36:54.726Z,308.00
2019-01-24T08:37:54.706Z,312.00
2019-01-24T08:38:54.697Z,324.00
2019-01-24T08:39:54.643Z,328.00
2019-01-24T08:40:54.618Z,332.00
2019-01-24T08:41:54.590Z,336.00
2019-01-24T08:42:54.559Z,336.00
2019-01-24T08:43:54.534Z,344.00
2019-01-24T08:44:54.510Z,344.00
2019-01-24T08:45:54.484Z,348.00
2019-01-24T08:46:54.452Z,352.00
2019-01-24T08:47:54.428Z,360.00
2019-01-24T08:48:54.401Z,360.00
2019-01-24T08:49:54.373Z,364.00
2019-01-24T08:50:54.349Z,364.00
2019-01-24T08:51:54.319Z,368.00
2019-01-24T08:52:54.295Z,372.00
2019-01-24T08:53:54.263Z,384.00
2019-01-24T08:54:54.244Z,388.00
2019-01-24T08:55:54.225Z,396.00
2019-01-24T08:56:54.192Z,404.00
2019-01-24T08:57:54.157Z,408.00
2019-01-24T08:58:54.133Z,412.00
2019-01-24T08:59:54.109Z,416.00
2019-01-24T09:00:54.076Z,420.00
2019-01-24T09:01:54.052Z,428.00
2019-01-24T09:02:54.020Z,436.00
2019-01-24T09:03:53.994Z,436.00
2019-01-24T09:04:53.966Z,432.00
2019-01-24T09:05:53.946Z,432.00
2019-01-24T09:06:53.913Z,436.00
2019-01-24T09:07:53.886Z,436.00
2019-01-24T09:08:53.863Z,436.00
2019-01-24T09:09:53.830Z,440.00
2019-01-24T09:10:53.809Z,448.00
2019-01-24T09:11:53.779Z,456.00
2019-01-24T09:12:53.749Z,468.00
2019-01-24T09:13:53.731Z,480.00
2019-01-24T09:14:53.700Z,488.00
2019-01-24T09:15:53.671Z,496.00
2019-01-24T09:16:53.645Z,504.00
2019-01-24T09:17:53.614Z,508.00
2019-01-24T09:18:53.591Z,508.00
2019-01-24T09:19:53.562Z,516.00
2019-01-24T09:20:53.540Z,528.00
2019-01-24T09:21:53.506Z,540.00
2019-01-24T09:22:55.373Z,556.00
2019-01-24T09:23:53.457Z,568.00
2019-01-24T09:24:53.428Z,576.00
2019-01-24T09:25:53.406Z,584.00
2019-01-24T09:26:53.372Z,604.00
2019-01-24T09:27:53.355Z,616.00
2019-01-24T09:28:53.327Z,628.00
2019-01-24T09:29:53.299Z,632.00
2019-01-24T09:30:53.269Z,632.00
2019-01-24T09:31:53.241Z,628.00
2019-01-24T09:32:53.212Z,632.00
2019-01-24T09:33:53.185Z,632.00
2019-01-24T09:34:53.165Z,632.00
2019-01-24T09:35:53.140Z,640.00
2019-01-24T09:36:53.108Z,652.00
2019-01-24T09:37:53.089Z,664.00
2019-01-24T09:38:53.052Z,672.00
2019-01-24T09:39:53.030Z,676.00
2019-01-24T09:40:53.003Z,688.00
2019-01-24T09:41:52.976Z,696.00
2019-01-24T09:42:52.945Z,704.00
2019-01-24T09:43:52.924Z,700.00
2019-01-24T09:44:52.894Z,696.00
2019-01-24T09:45:52.864Z,704.00
2019-01-24T09:46:52.842Z,716.00
2019-01-24T09:47:52.813Z,728.00
2019-01-24T09:48:52.786Z,740.00
2019-01-24T09:49:52.762Z,748.00
2019-01-24T09:50:52.735Z,752.00
2019-01-24T09:51:52.708Z,764.00
2019-01-24T09:52:52.679Z,780.00
2019-01-24T09:53:52.652Z,796.00
2019-01-24T09:54:52.632Z,816.00
2019-01-24T09:55:52.601Z,836.00
2019-01-24T09:56:52.581Z,852.00
2019-01-24T09:57:52.546Z,864.00
2019-01-24T09:58:52.517Z,872.00
2019-01-24T09:59:52.492Z,888.00
2019-01-24T10:00:52.466Z,908.00
2019-01-24T10:01:52.444Z,920.00
2019-01-24T10:02:52.417Z,932.00
2019-01-24T10:03:52.384Z,948.00
2019-01-24T10:04:52.359Z,964.00
2019-01-24T10:05:52.333Z,964.00
2019-01-24T10:06:52.307Z,960.00
2019-01-24T10:07:52.280Z,956.00
2019-01-24T10:08:52.258Z,948.00
2019-01-24T10:09:52.230Z,948.00
2019-01-24T10:10:52.204Z,948.00
2019-01-24T10:11:52.183Z,944.00
2019-01-24T10:12:52.150Z,944.00
2019-01-24T10:13:52.126Z,952.00
2019-01-24T10:14:52.099Z,968.00
2019-01-24T10:15:52.069Z,976.00
2019-01-24T10:16:52.044Z,992.00
2019-01-24T10:17:52.022Z,996.00
2019-01-24T10:18:51.991Z,1008.00
2019-01-24T10:19:51.967Z,1028.00
2019-01-24T10:20:51.942Z,1060.00
2019-01-24T10:21:51.910Z,1084.00
2019-01-24T10:22:51.891Z,1104.00
2019-01-24T10:23:51.858Z,1116.00
2019-01-24T10:24:51.827Z,1124.00
2019-01-24T10:25:51.809Z,1132.00
2019-01-24T10:26:51.779Z,1156.00
2019-01-24T10:27:51.750Z,1188.00
2019-01-24T10:28:51.734Z,1224.00
2019-01-24T10:29:51.695Z,1264.00
2019-01-24T10:30:51.672Z,1296.00
2019-01-24T10:31:51.642Z,1312.00
2019-01-24T10:32:51.613Z,1308.00
2019-01-24T10:33:51.592Z,1304.00
2019-01-24T10:34:51.563Z,1304.00
2019-01-24T10:35:51.536Z,1304.00
2019-01-24T10:36:51.509Z,1296.00
2019-01-24T10:37:51.489Z,1292.00
2019-01-24T10:38:51.459Z,1284.00
2019-01-24T10:39:51.441Z,1272.00
2019-01-24T10:40:51.402Z,1248.00
2019-01-24T10:41:51.394Z,1232.00
2019-01-24T10:42:51.352Z,1224.00
2019-01-24T10:43:51.326Z,1220.00
2019-01-24T10:44:51.300Z,1212.00
2019-01-24T10:45:51.271Z,1204.00
2019-01-24T10:46:52.569Z,1192.00
2019-01-24T10:47:51.222Z,1192.00
2019-01-24T10:48:51.198Z,1204.00
2019-01-24T10:49:51.165Z,1224.00
2019-01-24T10:50:51.141Z,1248.00
2019-01-24T10:51:51.114Z,1280.00
2019-01-24T10:52:51.092Z,1312.00
2019-01-24T10:53:51.060Z,1332.00
2019-01-24T10:54:51.033Z,1328.00
2019-01-24T10:55:51.014Z,1316.00
2019-01-24T10:56:50.982Z,1316.00
2019-01-24T10:57:50.953Z,1308.00
2019-01-24T10:58:50.932Z,1296.00
2019-01-24T10:59:50.909Z,1272.00
2019-01-24T11:00:50.881Z,1252.00
2019-01-24T11:01:50.848Z,1248.00
2019-01-24T11:02:50.824Z,1248.00
2019-01-24T11:03:50.797Z,1256.00
2019-01-24T11:04:50.769Z,1264.00
2019-01-24T11:05:50.743Z,1288.00
2019-01-24T11:06:50.719Z,1320.00
2019-01-24T11:07:50.694Z,1348.00
2019-01-24T11:08:50.667Z,1372.00
2019-01-24T11:09:50.640Z,1376.00
2019-01-24T11:10:50.615Z,1376.00
2019-01-24T11:11:50.585Z,1380.00
2019-01-24T11:12:50.557Z,1396.00
2019-01-24T11:13:50.532Z,1424.00
2019-01-24T11:14:50.508Z,1456.00
2019-01-24T11:15:50.477Z,1496.00
2019-01-24T11:16:50.455Z,1528.00
2019-01-24T11:17:50.430Z,1540.00
2019-01-24T11:18:50.405Z,1540.00
2019-01-24T11:19:50.372Z,1540.00
2019-01-24T11:20:50.359Z,1540.00
2019-01-24T11:21:50.321Z,1540.00
2019-01-24T11:22:50.299Z,1536.00
2019-01-24T11:23:50.275Z,1524.00
2019-01-24T11:24:50.241Z,1524.00
2019-01-24T11:25:50.252Z,1536.00
2019-01-24T11:26:50.188Z,1552.00
2019-01-24T11:27:50.157Z,1556.00
2019-01-24T11:28:50.131Z,1536.00
2019-01-24T11:29:50.106Z,1524.00
2019-01-24T11:30:50.081Z,1516.00
2019-01-24T11:31:50.052Z,1520.00
2019-01-24T11:32:50.027Z,1512.00
2019-01-24T11:33:50.001Z,1512.00
2019-01-24T11:34:49.978Z,1500.00
2019-01-24T11:35:49.947Z,1476.00
2019-01-24T11:36:49.937Z,1460.00
2019-01-24T11:37:49.903Z,1436.00
2019-01-24T11:38:49.871Z,1412.00
2019-01-24T11:39:49.840Z,1392.00
2019-01-24T11:40:49.812Z,1380.00
2019-01-24T11:41:49.786Z,1372.00
2019-01-24T11:42:49.769Z,1364.00
2019-01-24T11:43:49.731Z,1364.00
2019-01-24T11:44:49.708Z,1380.00
2019-01-24T11:45:49.683Z,1408.00
2019-01-24T11:46:49.655Z,1428.00
2019-01-24T11:47:49.630Z,1444.00
2019-01-24T11:48:49.614Z,1456.00
2019-01-24T11:49:49.574Z,1456.00
2019-01-24T11:50:51.110Z,1448.00
2019-01-24T11:51:49.523Z,1432.00
2019-01-24T11:52:49.495Z,1436.00
2019-01-24T11:53:53.223Z,1456.00
2019-01-24T11:54:49.440Z,1488.00
2019-01-24T11:55:49.419Z,1492.00
2019-01-24T11:56:49.388Z,1500.00
2019-01-24T11:57:49.370Z,1500.00
2019-01-24T11:58:49.340Z,1488.00
2019-01-24T11:59:49.308Z,1460.00
2019-01-24T12:00:49.280Z,1432.00
2019-01-24T12:01:49.256Z,1416.00
2019-01-24T12:02:49.236Z,1404.00
2019-01-24T12:03:49.202Z,1376.00
2019-01-24T12:04:49.179Z,1348.00
2019-01-24T12:05:49.152Z,1316.00
2019-01-24T12:06:49.126Z,1276.00
2019-01-24T12:07:49.094Z,1252.00
2019-01-24T12:08:49.071Z,1228.00
2019-01-24T12:09:49.056Z,1204.00
2019-01-24T12:10:49.017Z,1180.00
2019-01-24T12:11:48.998Z,1160.00
2019-01-24T12:12:48.960Z,1144.00
2019-01-24T12:13:48.943Z,1128.00
2019-01-24T12:14:48.906Z,1120.00
2019-01-24T12:15:48.892Z,1116.00
2019-01-24T12:16:48.860Z,1124.00
2019-01-24T12:17:48.824Z,1148.00
2019-01-24T12:18:48.814Z,1164.00
2019-01-24T12:19:48.774Z,1180.00
2019-01-24T12:20:48.747Z,1192.00
2019-01-24T12:21:48.729Z,1184.00
2019-01-24T12:22:48.702Z,1172.00
2019-01-24T12:23:48.672Z,1160.00
2019-01-24T12:24:48.638Z,1156.00
2019-01-24T12:25:48.619Z,1148.00
2019-01-24T12:26:48.586Z,1144.00
2019-01-24T12:27:48.570Z,1140.00
2019-01-24T12:28:48.540Z,1124.00
2019-01-24T12:29:48.510Z,1108.00
2019-01-24T12:30:48.485Z,1088.00
2019-01-24T12:31:48.456Z,1072.00
2019-01-24T12:32:48.445Z,1064.00
2019-01-24T12:33:48.407Z,1060.00
2019-01-24T12:34:48.372Z,1060.00
2019-01-24T12:35:48.361Z,1052.00
2019-01-24T12:36:48.325Z,1044.00
2019-01-24T12:37:48.295Z,1032.00
2019-01-24T12:38:48.276Z,1024.00
2019-01-24T12:39:48.246Z,1008.00
2019-01-24T12:40:48.218Z,1000.00
2019-01-24T12:41:48.192Z,988.00
2019-01-24T12:42:48.166Z,980.00
2019-01-24T12:43:48.134Z,988.00
2019-01-24T12:44:48.127Z,996.00
2019-01-24T12:45:48.086Z,1012.00
2019-01-24T12:46:48.074Z,1020.00
2019-01-24T12:47:48.040Z,1028.00
2019-01-24T12:48:48.008Z,1020.00
2019-01-24T12:49:47.996Z,1008.00
2019-01-24T12:50:47.960Z,996.00
2019-01-24T12:51:47.931Z,996.00
2019-01-24T12:52:47.905Z,996.00